createdAt,value
2016-10-20T00:00:22.007Z,0
2016-10-20T00:01:21.933Z,0
2016-10-20T00:02:21.929Z,0
2016-10-20T00:03:21.923Z,0
2016-10-20T00:04:22.235Z,0
2016-10-20T00:05:21.862Z,0
2016-10-20T00:06:21.827Z,0
2016-10-20T00:07:21.818Z,0
2016-10-20T00:08:21.856Z,0
2016-10-20T00:09:21.791Z,0
2016-10-20T00:10:21.779Z,0
2016-10-20T00:11:21.769Z,0
2016-10-20T00:12:21.736Z,0
2016-10-20T00:13:21.692Z,0
2016-10-20T00:14:21.733Z,0
2016-10-20T00:15:21.672Z,0
2016-10-20T00:16:21.727Z,0
2016-10-20T00:17:21.637Z,0
2016-10-20T00:18:21.618Z,0
2016-10-20T00:19:21.586Z,0
2016-10-20T00:20:21.567Z,0
2016-10-20T00:21:21.617Z,0
2016-10-20T00:22:21.532Z,0
2016-10-20T00:23:21.572Z,0
2016-10-20T00:24:21.570Z,0
2016-10-20T00:25:21.522Z,0
2016-10-20T00:26:21.484Z,0
2016-10-20T00:27:21.456Z,0
2016-10-20T00:28:21.417Z,0
2016-10-20T00:29:21.403Z,0
2016-10-20T00:30:21.388Z,0
2016-10-20T00:31:21.411Z,0
2016-10-20T00:32:21.367Z,0
2016-10-20T00:33:21.339Z,0
2016-10-20T00:34:21.326Z,0
2016-10-20T00:35:21.285Z,0
2016-10-20T00:36:21.303Z,0
2016-10-20T00:37:21.287Z,0
2016-10-20T00:38:21.224Z,0
2016-10-20T00:39:21.196Z,0
2016-10-20T00:40:21.221Z,0
2016-10-20T00:41:21.195Z,0
2016-10-20T00:42:21.124Z,0
2016-10-20T00:43:21.129Z,0
2016-10-20T00:44:21.133Z,0
2016-10-20T00:45:21.072Z,0
2016-10-20T00:46:21.287Z,0
2016-10-20T00:47:21.019Z,0
2016-10-20T00:48:21.060Z,0
2016-10-20T00:49:21.024Z,0
2016-10-20T00:50:20.970Z,0
2016-10-20T00:51:20.970Z,0
2016-10-20T00:52:20.904Z,0
2016-10-20T00:53:20.940Z,0
2016-10-20T00:54:20.899Z,0
2016-10-20T00:55:20.868Z,0
2016-10-20T00:56:20.860Z,0
2016-10-20T00:57:20.830Z,0
2016-10-20T00:58:20.814Z,0
2016-10-20T00:59:20.839Z,0
2016-10-20T01:00:20.764Z,0
2016-10-20T01:01:20.762Z,0
2016-10-20T01:02:20.710Z,0
2016-10-20T01:03:20.737Z,0
2016-10-20T01:04:20.693Z,0
2016-10-20T01:05:20.705Z,0
2016-10-20T01:06:20.680Z,0
2016-10-20T01:07:20.687Z,0
2016-10-20T01:08:20.610Z,0
2016-10-20T01:09:20.618Z,0
2016-10-20T01:10:20.592Z,0
2016-10-20T01:11:20.573Z,0
2016-10-20T01:12:20.563Z,0
2016-10-20T01:13:20.538Z,0
2016-10-20T01:14:20.485Z,0
2016-10-20T01:15:20.467Z,0
2016-10-20T01:16:20.436Z,0
2016-10-20T01:17:20.395Z,0
2016-10-20T01:18:20.383Z,0
2016-10-20T01:19:20.373Z,0
2016-10-20T01:20:20.427Z,0
2016-10-20T01:21:20.308Z,0
2016-10-20T01:22:20.337Z,0
2016-10-20T01:23:20.269Z,0
2016-10-20T01:24:20.242Z,0
2016-10-20T01:25:20.339Z,0
2016-10-20T01:26:20.217Z,0
2016-10-20T01:27:20.234Z,0
2016-10-20T01:28:20.235Z,0
2016-10-20T01:29:20.176Z,0
2016-10-20T01:30:20.149Z,0
2016-10-20T01:31:20.129Z,0
2016-10-20T01:32:20.140Z,0
2016-10-20T01:33:20.098Z,0
2016-10-20T01:34:20.079Z,0
2016-10-20T01:35:20.081Z,0
2016-10-20T01:36:20.060Z,0
2016-10-20T01:37:20.038Z,0
2016-10-20T01:38:20.306Z,0
2016-10-20T01:39:20.004Z,0
2016-10-20T01:40:19.925Z,0
2016-10-20T01:41:19.956Z,0
2016-10-20T01:42:19.891Z,0
2016-10-20T01:43:19.904Z,0
2016-10-20T01:44:19.884Z,0
2016-10-20T01:45:19.855Z,0
2016-10-20T01:46:19.825Z,0
2016-10-20T01:47:19.801Z,0
2016-10-20T01:48:19.806Z,0
2016-10-20T01:49:19.764Z,0
2016-10-20T01:50:20.068Z,0
2016-10-20T01:51:19.737Z,0
2016-10-20T01:52:19.715Z,0
2016-10-20T01:53:19.707Z,0
2016-10-20T01:54:19.707Z,0
2016-10-20T01:55:19.617Z,0
2016-10-20T01:56:19.689Z,0
2016-10-20T01:57:19.645Z,0
2016-10-20T01:58:19.571Z,0
2016-10-20T01:59:19.861Z,0
2016-10-20T02:00:19.597Z,0
2016-10-20T02:01:19.539Z,0
2016-10-20T02:02:19.498Z,0
2016-10-20T02:03:19.540Z,0
2016-10-20T02:04:19.493Z,0
2016-10-20T02:05:19.449Z,0
2016-10-20T02:06:19.445Z,0
2016-10-20T02:07:19.368Z,0
2016-10-20T02:08:19.723Z,0
2016-10-20T02:09:19.375Z,0
2016-10-20T02:10:19.363Z,0
2016-10-20T02:11:19.368Z,0
2016-10-20T02:12:19.304Z,0
2016-10-20T02:13:19.273Z,0
2016-10-20T02:14:19.289Z,0
2016-10-20T02:15:19.265Z,0
2016-10-20T02:16:19.264Z,0
2016-10-20T02:17:19.211Z,0
2016-10-20T02:18:19.206Z,0
2016-10-20T02:19:19.161Z,0
2016-10-20T02:20:19.154Z,0
2016-10-20T02:21:19.188Z,0
2016-10-20T02:22:19.091Z,0
2016-10-20T02:23:19.111Z,0
2016-10-20T02:24:19.357Z,0
2016-10-20T02:25:19.087Z,0
2016-10-20T02:26:19.392Z,0
2016-10-20T02:27:19.076Z,0
2016-10-20T02:28:19.022Z,0
2016-10-20T02:29:19.020Z,0
2016-10-20T02:30:18.952Z,0
2016-10-20T02:31:18.926Z,0
2016-10-20T02:32:18.920Z,0
2016-10-20T02:33:18.850Z,0
2016-10-20T02:34:18.874Z,0
2016-10-20T02:35:18.890Z,0
2016-10-20T02:36:18.948Z,0
2016-10-20T02:37:18.847Z,0
2016-10-20T02:38:18.787Z,0
2016-10-20T02:39:18.811Z,0
2016-10-20T02:40:18.782Z,0
2016-10-20T02:41:18.726Z,0
2016-10-20T02:42:18.758Z,0
2016-10-20T02:43:18.674Z,0
2016-10-20T02:44:18.660Z,0
2016-10-20T02:45:18.702Z,0
2016-10-20T02:46:18.658Z,0
2016-10-20T02:47:18.657Z,0
2016-10-20T02:48:18.587Z,0
2016-10-20T02:49:18.590Z,0
2016-10-20T02:50:18.554Z,0
2016-10-20T02:51:18.576Z,0
2016-10-20T02:52:18.504Z,0
2016-10-20T02:53:18.490Z,0
2016-10-20T02:54:18.456Z,0
2016-10-20T02:55:18.443Z,0
2016-10-20T02:56:18.426Z,0
2016-10-20T02:57:18.413Z,0
2016-10-20T02:58:18.369Z,0
2016-10-20T02:59:18.342Z,0
2016-10-20T03:00:18.374Z,0
2016-10-20T03:01:18.308Z,0
2016-10-20T03:02:18.278Z,0
2016-10-20T03:03:18.234Z,0
2016-10-20T03:04:18.217Z,0
2016-10-20T03:05:18.204Z,0
2016-10-20T03:06:18.217Z,0
2016-10-20T03:07:18.234Z,0
2016-10-20T03:08:18.151Z,0
2016-10-20T03:09:18.134Z,0
2016-10-20T03:10:18.126Z,0
2016-10-20T03:11:18.108Z,0
2016-10-20T03:12:18.192Z,0
2016-10-20T03:13:18.071Z,0
2016-10-20T03:14:18.026Z,0
2016-10-20T03:15:18.046Z,0
2016-10-20T03:16:18.011Z,0
2016-10-20T03:17:17.982Z,0
2016-10-20T03:18:17.955Z,0
2016-10-20T03:19:17.974Z,0
2016-10-20T03:20:17.917Z,0
2016-10-20T03:21:17.895Z,0
2016-10-20T03:22:17.896Z,0
2016-10-20T03:23:17.866Z,0
2016-10-20T03:24:17.888Z,0
2016-10-20T03:25:17.828Z,0
2016-10-20T03:26:17.779Z,0
2016-10-20T03:27:17.781Z,0
2016-10-20T03:28:17.759Z,0
2016-10-20T03:29:17.740Z,0
2016-10-20T03:30:17.731Z,0
2016-10-20T03:31:17.707Z,0
2016-10-20T03:32:17.695Z,0
2016-10-20T03:33:17.664Z,0
2016-10-20T03:34:17.955Z,0
2016-10-20T03:35:17.612Z,0
2016-10-20T03:36:17.617Z,0
2016-10-20T03:37:17.570Z,0
2016-10-20T03:38:17.690Z,0
2016-10-20T03:39:17.580Z,0
2016-10-20T03:40:17.492Z,0
2016-10-20T03:41:17.519Z,0
2016-10-20T03:42:17.488Z,0
2016-10-20T03:43:17.440Z,0
2016-10-20T03:44:17.423Z,0
2016-10-20T03:45:17.459Z,0
2016-10-20T03:46:17.673Z,0
2016-10-20T03:47:17.360Z,0
2016-10-20T03:48:17.345Z,0
2016-10-20T03:49:17.368Z,0
2016-10-20T03:50:17.318Z,0
2016-10-20T03:51:17.294Z,0
2016-10-20T03:52:17.253Z,0
2016-10-20T03:53:17.262Z,0
2016-10-20T03:54:17.240Z,0
2016-10-20T03:55:17.481Z,0
2016-10-20T03:56:17.496Z,0
2016-10-20T03:57:17.186Z,0
2016-10-20T03:58:17.148Z,0
2016-10-20T03:59:17.110Z,0
2016-10-20T04:00:17.092Z,0
2016-10-20T04:01:17.083Z,0
2016-10-20T04:02:17.085Z,0
2016-10-20T04:03:17.051Z,0
2016-10-20T04:04:17.036Z,0
2016-10-20T04:05:17.001Z,0
2016-10-20T04:06:16.981Z,0
2016-10-20T04:07:16.961Z,0
2016-10-20T04:08:16.925Z,0
2016-10-20T04:09:17.230Z,0
2016-10-20T04:10:16.897Z,0
2016-10-20T04:11:16.860Z,0
2016-10-20T04:12:16.864Z,0
2016-10-20T04:13:17.141Z,0
2016-10-20T04:14:16.824Z,0
2016-10-20T04:15:16.809Z,0
2016-10-20T04:16:16.795Z,0
2016-10-20T04:17:16.776Z,0
2016-10-20T04:18:16.731Z,0
2016-10-20T04:19:16.734Z,0
2016-10-20T04:20:16.702Z,0
2016-10-20T04:21:16.695Z,0
2016-10-20T04:22:16.692Z,0
2016-10-20T04:23:16.628Z,0
2016-10-20T04:24:16.618Z,0
2016-10-20T04:25:16.613Z,0
2016-10-20T04:26:16.597Z,0
2016-10-20T04:27:16.559Z,0
2016-10-20T04:28:16.542Z,0
2016-10-20T04:29:16.506Z,0
2016-10-20T04:30:16.483Z,0
2016-10-20T04:31:16.794Z,0
2016-10-20T04:32:16.476Z,0
2016-10-20T04:33:16.441Z,0
2016-10-20T04:34:16.409Z,0
2016-10-20T04:35:16.397Z,0
2016-10-20T04:36:16.390Z,0
2016-10-20T04:37:16.355Z,0
2016-10-20T04:38:16.670Z,0
2016-10-20T04:39:16.373Z,0
2016-10-20T04:40:16.316Z,0
2016-10-20T04:41:16.278Z,0
2016-10-20T04:42:16.253Z,0
2016-10-20T04:43:16.239Z,0
2016-10-20T04:44:16.216Z,0
2016-10-20T04:45:16.205Z,0
2016-10-20T04:46:16.198Z,0
2016-10-20T04:47:16.201Z,0
2016-10-20T04:48:16.152Z,0
2016-10-20T04:49:16.115Z,0
2016-10-20T04:50:16.083Z,0
2016-10-20T04:51:16.084Z,0
2016-10-20T04:52:16.104Z,0
2016-10-20T04:53:16.047Z,0
2016-10-20T04:54:16.027Z,0
2016-10-20T04:55:16.001Z,0
2016-10-20T04:56:16.005Z,0
2016-10-20T04:57:15.974Z,0
2016-10-20T04:58:15.958Z,0
2016-10-20T04:59:15.958Z,0
2016-10-20T05:00:15.951Z,0
2016-10-20T05:01:15.913Z,0
2016-10-20T05:02:15.844Z,0
2016-10-20T05:03:15.852Z,0
2016-10-20T05:04:15.835Z,0
2016-10-20T05:05:15.830Z,0
2016-10-20T05:06:15.793Z,0
2016-10-20T05:07:15.765Z,0
2016-10-20T05:08:15.776Z,0
2016-10-20T05:09:15.726Z,0
2016-10-20T05:10:15.714Z,0
2016-10-20T05:11:15.702Z,0
2016-10-20T05:12:15.677Z,0
2016-10-20T05:13:15.700Z,0
2016-10-20T05:14:15.671Z,0
2016-10-20T05:15:15.657Z,0
2016-10-20T05:16:15.611Z,0
2016-10-20T05:17:15.574Z,0
2016-10-20T05:18:15.922Z,0
2016-10-20T05:19:15.571Z,0
2016-10-20T05:20:15.544Z,0
2016-10-20T05:21:15.534Z,0
2016-10-20T05:22:15.497Z,0
2016-10-20T05:23:15.480Z,0
2016-10-20T05:24:15.471Z,0
2016-10-20T05:25:15.485Z,0
2016-10-20T05:26:15.413Z,0
2016-10-20T05:27:15.571Z,0
2016-10-20T05:28:15.394Z,0
2016-10-20T05:29:15.366Z,0
2016-10-20T05:30:15.376Z,0
2016-10-20T05:31:15.335Z,0
2016-10-20T05:32:15.332Z,0
2016-10-20T05:33:15.281Z,0
2016-10-20T05:34:15.282Z,0
2016-10-20T05:35:15.253Z,5
2016-10-20T05:36:15.232Z,5
2016-10-20T05:37:15.210Z,5
2016-10-20T05:38:15.199Z,5
2016-10-20T05:39:15.181Z,5
2016-10-20T05:40:15.152Z,5
2016-10-20T05:41:15.133Z,5
2016-10-20T05:42:15.126Z,10
2016-10-20T05:43:15.110Z,10
2016-10-20T05:44:15.085Z,10
2016-10-20T05:45:15.094Z,10
2016-10-20T05:46:15.096Z,15
2016-10-20T05:47:15.381Z,15
2016-10-20T05:48:15.025Z,15
2016-10-20T05:49:14.980Z,20
2016-10-20T05:50:14.966Z,20
2016-10-20T05:51:14.980Z,20
2016-10-20T05:52:14.917Z,25
2016-10-20T05:53:14.939Z,25
2016-10-20T05:54:14.895Z,25
2016-10-20T05:55:14.901Z,30
2016-10-20T05:56:14.867Z,35
2016-10-20T05:57:14.858Z,40
2016-10-20T05:58:14.861Z,40
2016-10-20T05:59:14.837Z,40
2016-10-20T06:00:14.802Z,45
2016-10-20T06:01:14.770Z,50
2016-10-20T06:02:15.392Z,60
2016-10-20T06:03:14.825Z,65
2016-10-20T06:04:14.728Z,65
2016-10-20T06:05:14.708Z,60
2016-10-20T06:06:14.673Z,55
2016-10-20T06:07:14.706Z,65
2016-10-20T06:08:14.636Z,80
2016-10-20T06:09:14.601Z,90
2016-10-20T06:10:14.572Z,85
2016-10-20T06:11:14.554Z,75
2016-10-20T06:12:14.545Z,70
2016-10-20T06:13:14.547Z,75
2016-10-20T06:14:14.846Z,80
2016-10-20T06:15:14.507Z,85
2016-10-20T06:16:14.473Z,95
2016-10-20T06:17:14.464Z,100
2016-10-20T06:18:14.450Z,95
2016-10-20T06:19:14.425Z,100
2016-10-20T06:20:14.388Z,105
2016-10-20T06:21:14.386Z,110
2016-10-20T06:22:14.354Z,115
2016-10-20T06:23:14.340Z,115
2016-10-20T06:24:14.335Z,125
2016-10-20T06:25:14.338Z,110
2016-10-20T06:26:14.326Z,110
2016-10-20T06:27:14.284Z,120
2016-10-20T06:28:14.267Z,115
2016-10-20T06:29:14.295Z,115
2016-10-20T06:30:14.221Z,115
2016-10-20T06:31:14.193Z,120
2016-10-20T06:32:14.179Z,125
2016-10-20T06:33:14.189Z,125
2016-10-20T06:34:14.151Z,130
2016-10-20T06:35:14.126Z,135
2016-10-20T06:36:14.104Z,130
2016-10-20T06:37:14.106Z,140
2016-10-20T06:38:14.085Z,175
2016-10-20T06:39:14.066Z,220
2016-10-20T06:40:14.029Z,230
2016-10-20T06:41:14.030Z,205
2016-10-20T06:42:13.976Z,200
2016-10-20T06:43:14.309Z,225
2016-10-20T06:44:13.992Z,275
2016-10-20T06:45:13.928Z,320
2016-10-20T06:46:13.936Z,310
2016-10-20T06:47:13.901Z,280
2016-10-20T06:48:13.877Z,270
2016-10-20T06:49:13.862Z,265
2016-10-20T06:50:13.846Z,270
2016-10-20T06:51:13.813Z,315
2016-10-20T06:52:13.819Z,295
2016-10-20T06:53:13.820Z,295
2016-10-20T06:54:13.769Z,315
2016-10-20T06:55:13.759Z,340
2016-10-20T06:56:13.745Z,440
2016-10-20T06:57:13.722Z,515
2016-10-20T06:58:13.717Z,505
2016-10-20T06:59:13.690Z,670
2016-10-20T07:00:13.677Z,695
2016-10-20T07:01:13.647Z,620
2016-10-20T07:02:13.625Z,615
2016-10-20T07:03:13.596Z,675
2016-10-20T07:04:13.583Z,825
2016-10-20T07:05:13.548Z,850
2016-10-20T07:06:13.545Z,975
2016-10-20T07:07:13.587Z,910
2016-10-20T07:08:13.510Z,1020
2016-10-20T07:09:13.507Z,870
2016-10-20T07:10:13.460Z,970
2016-10-20T07:11:13.439Z,1205
2016-10-20T07:12:13.447Z,905
2016-10-20T07:13:13.451Z,1095
2016-10-20T07:14:13.389Z,1155
2016-10-20T07:15:13.683Z,1305
2016-10-20T07:16:13.364Z,1435
2016-10-20T07:17:13.340Z,1305
2016-10-20T07:18:13.317Z,740
2016-10-20T07:19:13.316Z,885
2016-10-20T07:20:13.293Z,1075
2016-10-20T07:21:13.258Z,860
2016-10-20T07:22:13.215Z,1195
2016-10-20T07:23:13.223Z,1190
2016-10-20T07:24:13.521Z,1275
2016-10-20T07:25:13.168Z,980
2016-10-20T07:26:13.187Z,925
2016-10-20T07:27:13.167Z,470
2016-10-20T07:28:13.478Z,850
2016-10-20T07:29:13.118Z,800
2016-10-20T07:30:13.075Z,815
2016-10-20T07:31:13.053Z,815
2016-10-20T07:32:13.065Z,810
2016-10-20T07:33:13.053Z,810
2016-10-20T07:34:13.008Z,835
2016-10-20T07:35:13.065Z,835
2016-10-20T07:36:13.009Z,835
2016-10-20T07:37:12.951Z,835
2016-10-20T07:38:12.972Z,845
2016-10-20T07:39:12.935Z,845
2016-10-20T07:40:12.933Z,855
2016-10-20T07:41:12.895Z,865
2016-10-20T07:42:12.867Z,875
2016-10-20T07:43:12.888Z,875
2016-10-20T07:44:12.830Z,885
2016-10-20T07:45:12.798Z,890
2016-10-20T07:46:12.770Z,860
2016-10-20T07:47:12.768Z,860
2016-10-20T07:48:12.802Z,865
2016-10-20T07:49:12.703Z,865
2016-10-20T07:50:12.722Z,870
2016-10-20T07:51:12.725Z,880
2016-10-20T07:52:12.691Z,900
2016-10-20T07:53:12.648Z,905
2016-10-20T07:54:12.647Z,920
2016-10-20T07:55:12.628Z,900
2016-10-20T07:56:12.599Z,905
2016-10-20T07:57:12.608Z,915
2016-10-20T07:58:12.571Z,930
2016-10-20T07:59:12.570Z,945
2016-10-20T08:00:12.581Z,965
2016-10-20T08:01:12.507Z,960
2016-10-20T08:02:12.802Z,940
2016-10-20T08:03:12.482Z,955
2016-10-20T08:04:12.898Z,1000
2016-10-20T08:05:12.463Z,1115
2016-10-20T08:06:12.722Z,960
2016-10-20T08:07:12.448Z,950
2016-10-20T08:08:12.383Z,965
2016-10-20T08:09:12.351Z,960
2016-10-20T08:10:12.363Z,960
2016-10-20T08:11:12.342Z,970
2016-10-20T08:12:12.349Z,985
2016-10-20T08:13:12.293Z,985
2016-10-20T08:14:12.293Z,985
2016-10-20T08:15:12.272Z,995
2016-10-20T08:16:12.247Z,995
2016-10-20T08:17:12.241Z,1020
2016-10-20T08:18:12.206Z,1030
2016-10-20T08:19:12.251Z,1015
2016-10-20T08:20:12.209Z,1020
2016-10-20T08:21:12.185Z,1010
2016-10-20T08:22:12.186Z,1005
2016-10-20T08:23:12.187Z,1015
2016-10-20T08:24:12.111Z,1020
2016-10-20T08:25:12.177Z,1030
2016-10-20T08:26:12.384Z,1020
2016-10-20T08:27:12.064Z,1025
2016-10-20T08:28:12.084Z,1030
2016-10-20T08:29:12.045Z,1045
2016-10-20T08:30:12.027Z,1055
2016-10-20T08:31:12.016Z,1055
2016-10-20T08:32:12.010Z,1090
2016-10-20T08:33:11.996Z,1105
2016-10-20T08:34:12.031Z,1125
2016-10-20T08:35:11.953Z,1110
2016-10-20T08:36:11.925Z,1125
2016-10-20T08:37:11.886Z,1100
2016-10-20T08:38:11.895Z,1100
2016-10-20T08:39:11.905Z,1080
2016-10-20T08:40:11.867Z,1190
2016-10-20T08:41:11.870Z,1220
2016-10-20T08:42:11.835Z,1175
2016-10-20T08:43:11.846Z,1200
2016-10-20T08:44:11.830Z,1475
2016-10-20T08:45:11.776Z,1815
2016-10-20T08:46:11.793Z,2545
2016-10-20T08:47:11.755Z,2500
2016-10-20T08:48:11.730Z,2185
2016-10-20T08:49:11.711Z,2820
2016-10-20T08:50:11.681Z,2285
2016-10-20T08:51:11.694Z,2215
2016-10-20T08:52:11.664Z,1990
2016-10-20T08:53:11.660Z,1965
2016-10-20T08:54:11.618Z,1855
2016-10-20T08:55:11.692Z,2070
2016-10-20T08:56:11.621Z,2160
2016-10-20T08:57:11.611Z,1870
2016-10-20T08:58:11.562Z,1750
2016-10-20T08:59:11.564Z,2340
2016-10-20T09:00:11.544Z,2040
2016-10-20T09:01:11.588Z,1640
2016-10-20T09:02:11.582Z,2050
2016-10-20T09:03:11.496Z,1745
2016-10-20T09:04:11.470Z,1800
2016-10-20T09:05:11.473Z,2305
2016-10-20T09:06:11.437Z,2395
2016-10-20T09:07:11.738Z,2200
2016-10-20T09:08:11.390Z,2560
2016-10-20T09:09:11.417Z,2645
2016-10-20T09:10:11.382Z,2270
2016-10-20T09:11:11.366Z,2270
2016-10-20T09:12:11.353Z,2140
2016-10-20T09:13:11.353Z,2190
2016-10-20T09:14:11.334Z,2650
2016-10-20T09:15:11.327Z,2545
2016-10-20T09:16:11.288Z,2090
2016-10-20T09:17:11.243Z,1905
2016-10-20T09:18:11.250Z,3000
2016-10-20T09:19:11.235Z,2930
2016-10-20T09:20:11.270Z,3030
2016-10-20T09:21:11.211Z,3000
2016-10-20T09:22:11.231Z,3015
2016-10-20T09:23:11.160Z,2915
2016-10-20T09:24:11.182Z,3130
2016-10-20T09:25:11.172Z,2225
2016-10-20T09:26:11.126Z,2020
2016-10-20T09:27:11.146Z,1935
2016-10-20T09:28:11.138Z,1820
2016-10-20T09:29:11.093Z,1925
2016-10-20T09:30:11.112Z,2095
2016-10-20T09:31:11.095Z,2640
2016-10-20T09:32:11.044Z,2955
2016-10-20T09:33:11.033Z,2245
2016-10-20T09:34:11.003Z,2060
2016-10-20T09:35:10.994Z,2065
2016-10-20T09:36:11.026Z,1955
2016-10-20T09:37:10.962Z,2075
2016-10-20T09:38:10.927Z,2065
2016-10-20T09:39:10.953Z,1955
2016-10-20T09:40:10.916Z,1985
2016-10-20T09:41:10.910Z,2850
2016-10-20T09:42:10.878Z,3765
2016-10-20T09:43:10.855Z,3630
2016-10-20T09:44:10.845Z,3270
2016-10-20T09:45:10.821Z,2205
2016-10-20T09:46:10.833Z,1975
2016-10-20T09:47:10.798Z,2705
2016-10-20T09:48:10.768Z,2620
2016-10-20T09:49:10.783Z,2985
2016-10-20T09:50:10.745Z,2910
2016-10-20T09:51:10.734Z,2240
2016-10-20T09:52:10.710Z,1505
2016-10-20T09:53:10.691Z,1200
2016-10-20T09:54:10.671Z,2295
2016-10-20T09:55:10.678Z,3020
2016-10-20T09:56:10.671Z,2915
2016-10-20T09:57:10.652Z,3590
2016-10-20T09:58:10.605Z,4125
2016-10-20T09:59:10.598Z,3970
2016-10-20T10:00:10.626Z,3310
2016-10-20T10:01:10.582Z,2700
2016-10-20T10:02:10.564Z,3620
2016-10-20T10:03:10.533Z,2160
2016-10-20T10:04:10.507Z,1470
2016-10-20T10:05:10.498Z,1465
2016-10-20T10:06:10.475Z,1670
2016-10-20T10:07:10.483Z,1795
2016-10-20T10:08:10.449Z,2185
2016-10-20T10:09:10.455Z,2345
2016-10-20T10:10:10.434Z,1690
2016-10-20T10:11:10.409Z,1235
2016-10-20T10:12:10.400Z,1600
2016-10-20T10:13:10.380Z,1615
2016-10-20T10:14:10.375Z,2105
2016-10-20T10:15:10.311Z,2520
2016-10-20T10:16:10.319Z,2055
2016-10-20T10:17:10.335Z,1545
2016-10-20T10:18:10.307Z,1535
2016-10-20T10:19:10.277Z,1320
2016-10-20T10:20:10.269Z,1255
2016-10-20T10:21:10.230Z,1310
2016-10-20T10:22:10.216Z,1340
2016-10-20T10:23:10.204Z,1495
2016-10-20T10:24:10.191Z,1670
2016-10-20T10:25:10.172Z,1805
2016-10-20T10:26:10.181Z,1760
2016-10-20T10:27:10.464Z,1805
2016-10-20T10:28:10.126Z,2460
2016-10-20T10:29:10.150Z,2035
2016-10-20T10:30:10.120Z,2025
2016-10-20T10:31:10.427Z,2970
2016-10-20T10:32:10.110Z,2700
2016-10-20T10:33:10.057Z,2470
2016-10-20T10:34:10.034Z,3470
2016-10-20T10:35:10.029Z,2490
2016-10-20T10:36:09.989Z,2020
2016-10-20T10:37:10.286Z,2285
2016-10-20T10:38:10.256Z,1915
2016-10-20T10:39:09.930Z,1875
2016-10-20T10:40:09.901Z,1695
2016-10-20T10:41:09.903Z,1405
2016-10-20T10:42:09.873Z,1430
2016-10-20T10:43:10.181Z,1540
2016-10-20T10:44:09.841Z,1410
2016-10-20T10:45:09.807Z,1145
2016-10-20T10:46:09.801Z,1010
2016-10-20T10:47:09.773Z,1045
2016-10-20T10:48:09.765Z,1130
2016-10-20T10:49:09.754Z,1150
2016-10-20T10:50:09.741Z,1080
2016-10-20T10:51:09.711Z,975
2016-10-20T10:52:09.729Z,945
2016-10-20T10:53:09.695Z,1025
2016-10-20T10:54:09.694Z,1215
2016-10-20T10:55:09.664Z,1340
2016-10-20T10:56:09.646Z,1360
2016-10-20T10:57:09.610Z,1370
2016-10-20T10:58:09.600Z,1205
2016-10-20T10:59:09.610Z,1110
2016-10-20T11:00:09.565Z,1165
2016-10-20T11:01:09.533Z,1130
2016-10-20T11:02:09.549Z,1115
2016-10-20T11:03:09.502Z,1160
2016-10-20T11:04:09.497Z,1180
2016-10-20T11:05:09.481Z,1165
2016-10-20T11:06:09.462Z,1235
2016-10-20T11:07:09.454Z,1330
2016-10-20T11:08:09.437Z,1290
2016-10-20T11:09:09.447Z,1220
2016-10-20T11:10:09.397Z,1280
2016-10-20T11:11:09.410Z,1205
2016-10-20T11:12:09.375Z,970
2016-10-20T11:13:09.337Z,925
2016-10-20T11:14:09.323Z,1085
2016-10-20T11:15:09.298Z,1235
2016-10-20T11:16:09.284Z,1275
2016-10-20T11:17:09.252Z,1310
2016-10-20T11:18:09.224Z,1420
2016-10-20T11:19:09.229Z,1495
2016-10-20T11:20:09.210Z,1450
2016-10-20T11:21:09.208Z,1510
2016-10-20T11:22:09.473Z,1565
2016-10-20T11:23:09.163Z,1455
2016-10-20T11:24:09.460Z,1435
2016-10-20T11:25:09.123Z,1400
2016-10-20T11:26:09.105Z,1455
2016-10-20T11:27:09.115Z,1535
2016-10-20T11:28:09.051Z,1355
2016-10-20T11:29:09.079Z,1375
2016-10-20T11:30:09.047Z,1240
2016-10-20T11:31:09.013Z,1115
2016-10-20T11:32:08.999Z,1140
2016-10-20T11:33:08.994Z,1260
2016-10-20T11:34:08.975Z,1335
2016-10-20T11:35:08.944Z,1560
2016-10-20T11:36:08.923Z,1485
2016-10-20T11:37:08.915Z,1325
2016-10-20T11:38:08.921Z,1245
2016-10-20T11:39:08.882Z,1395
2016-10-20T11:40:08.870Z,1605
2016-10-20T11:41:09.307Z,1610
2016-10-20T11:42:08.849Z,1655
2016-10-20T11:43:08.825Z,1575
2016-10-20T11:44:08.795Z,1400
2016-10-20T11:45:08.770Z,1260
2016-10-20T11:46:08.795Z,1285
2016-10-20T11:47:08.739Z,1380
2016-10-20T11:48:08.712Z,1330
2016-10-20T11:49:08.716Z,1430
2016-10-20T11:50:08.694Z,1265
2016-10-20T11:51:08.680Z,1295
2016-10-20T11:52:08.843Z,1270
2016-10-20T11:53:08.612Z,1275
2016-10-20T11:54:08.626Z,1225
2016-10-20T11:55:08.610Z,1130
2016-10-20T11:56:08.600Z,1110
2016-10-20T11:57:08.591Z,1030
2016-10-20T11:58:08.585Z,940
2016-10-20T11:59:08.535Z,985
2016-10-20T12:00:08.558Z,1000
2016-10-20T12:01:08.491Z,890
2016-10-20T12:02:08.473Z,855
2016-10-20T12:03:08.494Z,915
2016-10-20T12:04:08.453Z,1015
2016-10-20T12:05:08.462Z,1075
2016-10-20T12:06:08.441Z,1090
2016-10-20T12:07:08.401Z,1120
2016-10-20T12:08:08.397Z,1165
2016-10-20T12:09:08.368Z,1130
2016-10-20T12:10:08.661Z,1120
2016-10-20T12:11:08.339Z,1150
2016-10-20T12:12:08.326Z,1235
2016-10-20T12:13:08.298Z,1175
2016-10-20T12:14:08.278Z,1135
2016-10-20T12:15:08.272Z,1210
2016-10-20T12:16:08.252Z,1125
2016-10-20T12:17:08.232Z,1025
2016-10-20T12:18:08.226Z,1060
2016-10-20T12:19:08.161Z,1240
2016-10-20T12:20:08.214Z,1320
2016-10-20T12:21:08.181Z,1225
2016-10-20T12:22:08.203Z,1175
2016-10-20T12:23:08.115Z,1120
2016-10-20T12:24:08.082Z,1000
2016-10-20T12:25:08.080Z,940
2016-10-20T12:26:08.077Z,885
2016-10-20T12:27:08.082Z,830
2016-10-20T12:28:08.037Z,750
2016-10-20T12:29:08.032Z,700
2016-10-20T12:30:08.020Z,745
2016-10-20T12:31:08.014Z,865
2016-10-20T12:32:07.956Z,910
2016-10-20T12:33:07.940Z,770
2016-10-20T12:34:07.959Z,755
2016-10-20T12:35:07.930Z,780
2016-10-20T12:36:07.903Z,805
2016-10-20T12:37:07.894Z,980
2016-10-20T12:38:07.847Z,1445
2016-10-20T12:39:07.831Z,1565
2016-10-20T12:40:07.811Z,815
2016-10-20T12:41:07.802Z,890
2016-10-20T12:42:08.099Z,1125
2016-10-20T12:43:07.770Z,1245
2016-10-20T12:44:07.804Z,1210
2016-10-20T12:45:07.926Z,1140
2016-10-20T12:46:07.897Z,1150
2016-10-20T12:47:07.733Z,1110
2016-10-20T12:48:07.686Z,1265
2016-10-20T12:49:07.644Z,1405
2016-10-20T12:50:07.650Z,1195
2016-10-20T12:51:07.643Z,1085
2016-10-20T12:52:07.589Z,1020
2016-10-20T12:53:07.928Z,1030
2016-10-20T12:54:07.647Z,1190
2016-10-20T12:55:07.847Z,1100
2016-10-20T12:56:07.536Z,1050
2016-10-20T12:57:07.549Z,960
2016-10-20T12:58:07.514Z,1050
2016-10-20T12:59:07.483Z,1145
2016-10-20T13:00:07.483Z,1140
2016-10-20T13:01:07.788Z,1120
2016-10-20T13:02:07.418Z,1150
2016-10-20T13:03:07.435Z,1080
2016-10-20T13:04:07.378Z,965
2016-10-20T13:05:07.359Z,940
2016-10-20T13:06:07.343Z,900
2016-10-20T13:07:07.329Z,965
2016-10-20T13:08:07.312Z,1105
2016-10-20T13:09:07.307Z,1455
2016-10-20T13:10:07.593Z,1840
2016-10-20T13:11:07.274Z,1795
2016-10-20T13:12:07.479Z,1950
2016-10-20T13:13:07.246Z,1700
2016-10-20T13:14:07.442Z,1185
2016-10-20T13:15:07.413Z,940
2016-10-20T13:16:07.183Z,910
2016-10-20T13:17:07.177Z,895
2016-10-20T13:18:07.154Z,850
2016-10-20T13:19:07.121Z,900
2016-10-20T13:20:07.096Z,1015
2016-10-20T13:21:07.086Z,1065
2016-10-20T13:22:07.079Z,1035
2016-10-20T13:23:07.110Z,1055
2016-10-20T13:24:07.047Z,1175
2016-10-20T13:25:07.006Z,1015
2016-10-20T13:26:07.014Z,970
2016-10-20T13:27:07.336Z,805
2016-10-20T13:28:07.037Z,685
2016-10-20T13:29:06.970Z,815
2016-10-20T13:30:06.944Z,860
2016-10-20T13:31:06.966Z,985
2016-10-20T13:32:07.238Z,1030
2016-10-20T13:33:06.877Z,890
2016-10-20T13:34:06.852Z,930
2016-10-20T13:35:07.193Z,1015
2016-10-20T13:36:06.830Z,1200
2016-10-20T13:37:06.837Z,990
2016-10-20T13:38:06.822Z,810
2016-10-20T13:39:06.775Z,745
2016-10-20T13:40:06.787Z,810
2016-10-20T13:41:06.919Z,815
2016-10-20T13:42:06.945Z,1045
2016-10-20T13:43:06.944Z,1060
2016-10-20T13:44:06.666Z,1160
2016-10-20T13:45:06.706Z,990
2016-10-20T13:46:06.684Z,985
2016-10-20T13:47:06.630Z,710
2016-10-20T13:48:06.608Z,745
2016-10-20T13:49:06.639Z,735
2016-10-20T13:50:06.899Z,705
2016-10-20T13:51:06.569Z,700
2016-10-20T13:52:06.536Z,645
2016-10-20T13:53:06.533Z,705
2016-10-20T13:54:06.516Z,765
2016-10-20T13:55:06.499Z,825
2016-10-20T13:56:06.795Z,915
2016-10-20T13:57:06.479Z,895
2016-10-20T13:58:06.447Z,920
2016-10-20T13:59:06.443Z,810
2016-10-20T14:00:06.426Z,660